createdAt,value
2023-05-16T00:00:12.248Z,15.25
2023-05-16T00:03:16.106Z,13.00
2023-05-16T00:06:20.021Z,15.50
2023-05-16T00:09:23.920Z,12.00
2023-05-16T00:12:29.460Z,9.25
2023-05-16T00:15:33.528Z,16.50
2023-05-16T00:18:37.976Z,12.75
2023-05-16T00:21:41.550Z,12.00
2023-05-16T00:24:45.162Z,12.50
2023-05-16T00:27:50.195Z,12.00
2023-05-16T00:30:53.938Z,16.00
2023-05-16T00:34:00.032Z,11.00
2023-05-16T00:37:03.979Z,11.50
2023-05-16T00:40:08.782Z,13.50
2023-05-16T00:43:14.629Z,11.50
2023-05-16T00:46:18.421Z,9.25
2023-05-16T00:49:22.431Z,12.75
2023-05-16T00:52:26.663Z,12.75
2023-05-16T00:55:30.304Z,9.75
2023-05-16T00:58:36.146Z,14.00
2023-05-16T01:01:40.676Z,18.50
2023-05-16T01:04:44.843Z,12.00
2023-05-16T01:07:48.455Z,10.00
2023-05-16T01:11:00.819Z,12.25
2023-05-16T01:14:18.942Z,10.00
2023-05-16T01:17:28.296Z,10.75
2023-05-16T01:20:44.465Z,12.00
2023-05-16T01:23:54.269Z,15.25
2023-05-16T01:27:01.341Z,11.50
2023-05-16T01:30:16.778Z,13.50
2023-05-16T01:33:20.524Z,12.75
2023-05-16T01:36:27.319Z,9.00
2023-05-16T01:39:37.564Z,13.00
2023-05-16T01:42:48.052Z,13.50
2023-05-16T01:45:59.273Z,11.50
2023-05-16T01:49:07.924Z,17.50
2023-05-16T01:52:17.505Z,12.75
2023-05-16T01:55:31.415Z,15.00
2023-05-16T01:58:38.884Z,12.00
2023-05-16T02:01:42.396Z,18.00
2023-05-16T02:04:46.368Z,12.50
2023-05-16T02:07:52.199Z,15.00
2023-05-16T02:10:55.792Z,15.25
2023-05-16T02:14:01.214Z,12.50
2023-05-16T02:17:04.910Z,13.00
2023-05-16T02:20:10.486Z,14.00
2023-05-16T02:23:14.164Z,15.00
2023-05-16T02:26:17.661Z,15.50
2023-05-16T02:29:22.528Z,12.00
2023-05-16T02:32:26.446Z,18.50
2023-05-16T02:35:30.152Z,17.00
2023-05-16T02:38:33.849Z,15.50
2023-05-16T02:41:37.585Z,17.00
2023-05-16T02:44:43.148Z,16.50
2023-05-16T02:47:46.638Z,15.00
2023-05-16T02:50:50.291Z,17.00
2023-05-16T02:53:54.398Z,18.00
2023-05-16T02:56:58.012Z,11.00
2023-05-16T03:00:06.144Z,21.00
2023-05-16T03:03:09.963Z,17.00
2023-05-16T03:06:13.691Z,18.25
2023-05-16T03:09:17.177Z,15.75
2023-05-16T03:12:20.700Z,19.00
2023-05-16T03:15:26.432Z,15.75
2023-05-16T03:18:30.152Z,16.00
2023-05-16T03:21:34.020Z,19.00
2023-05-16T03:24:37.809Z,18.25
2023-05-16T03:27:41.298Z,17.75
2023-05-16T03:30:46.208Z,18.25
2023-05-16T03:33:49.805Z,21.00
2023-05-16T03:36:53.698Z,15.00
2023-05-16T03:39:57.218Z,13.00
2023-05-16T03:43:00.766Z,18.25
2023-05-16T03:46:05.891Z,17.50
2023-05-16T03:49:09.727Z,15.75
2023-05-16T03:52:13.260Z,19.00
2023-05-16T03:55:16.855Z,15.25
2023-05-16T03:58:20.334Z,19.25
2023-05-16T04:01:29.829Z,20.00
2023-05-16T04:04:33.234Z,15.25
2023-05-16T04:07:37.320Z,13.50
2023-05-16T04:10:40.826Z,15.50
2023-05-16T04:13:44.431Z,16.25
2023-05-16T04:16:49.337Z,18.50
2023-05-16T04:19:52.917Z,19.25
2023-05-16T04:22:56.494Z,14.50
2023-05-16T04:26:00.174Z,15.75
2023-05-16T04:29:03.661Z,18.25
2023-05-16T04:32:09.745Z,17.25
2023-05-16T04:35:13.293Z,21.25
2023-05-16T04:38:17.086Z,18.00
2023-05-16T04:41:20.622Z,17.00
2023-05-16T04:44:24.880Z,17.50
2023-05-16T04:47:29.859Z,19.00
2023-05-16T04:50:33.332Z,17.25
2023-05-16T04:53:36.960Z,20.25
2023-05-16T04:56:40.656Z,20.00
2023-05-16T04:59:44.601Z,17.50
2023-05-16T05:02:49.725Z,20.50
2023-05-16T05:05:53.408Z,18.25
2023-05-16T05:08:56.788Z,17.75
2023-05-16T05:12:00.255Z,16.00
2023-05-16T05:15:04.152Z,22.25
2023-05-16T05:18:09.183Z,23.25
2023-05-16T05:21:12.676Z,25.75
2023-05-16T05:24:16.055Z,18.75
2023-05-16T05:27:19.479Z,21.00
2023-05-16T05:30:23.347Z,18.75
2023-05-16T05:33:29.703Z,21.00
2023-05-16T05:36:33.218Z,21.00
2023-05-16T05:39:36.665Z,13.00
2023-05-16T05:42:40.240Z,17.00
2023-05-16T05:45:44.010Z,19.00
2023-05-16T05:48:48.893Z,18.25
2023-05-16T05:51:53.281Z,21.00
2023-05-16T05:54:56.686Z,27.00
2023-05-16T05:58:00.360Z,24.00
2023-05-16T06:01:04.153Z,23.25
2023-05-16T06:04:09.073Z,21.00
2023-05-16T06:07:12.474Z,28.00
2023-05-16T06:10:16.139Z,27.75
2023-05-16T06:13:19.496Z,24.00
2023-05-16T06:16:26.192Z,6.00
2023-05-16T06:19:31.430Z,14.00
2023-05-16T06:22:34.928Z,19.50
2023-05-16T06:25:38.325Z,19.25
2023-05-16T06:28:41.830Z,29.75
2023-05-16T06:31:45.551Z,17.50
2023-05-16T06:34:50.681Z,30.50
2023-05-16T06:37:54.228Z,18.25
2023-05-16T06:40:57.662Z,24.25
2023-05-16T06:44:01.624Z,25.00
2023-05-16T06:47:05.840Z,24.00
2023-05-16T06:50:12.161Z,12.67
2023-05-16T06:53:15.734Z,26.33
2023-05-16T06:56:19.449Z,27.33
2023-05-16T06:59:22.972Z,25.33
2023-05-16T07:02:27.130Z,19.67
2023-05-16T07:05:32.465Z,28.00
2023-05-16T07:08:37.202Z,27.67
2023-05-16T07:11:40.961Z,26.33
2023-05-16T07:14:45.015Z,28.67
2023-05-16T07:17:48.551Z,20.00
2023-05-16T07:20:53.597Z,17.33
2023-05-16T07:24:10.451Z,22.67
2023-05-16T07:27:14.042Z,25.00
2023-05-16T07:30:17.969Z,27.00
2023-05-16T07:33:21.557Z,17.67
2023-05-16T07:36:26.750Z,19.33
2023-05-16T07:39:30.543Z,22.00
2023-05-16T07:42:34.172Z,18.67
2023-05-16T07:45:38.069Z,20.67
2023-05-16T07:48:41.822Z,21.67
2023-05-16T07:51:47.076Z,23.67
2023-05-16T07:54:50.946Z,26.33
2023-05-16T07:57:54.610Z,16.33
2023-05-16T08:00:58.445Z,19.33
2023-05-16T08:04:01.982Z,14.00
2023-05-16T08:07:07.149Z,19.67
2023-05-16T08:10:13.299Z,14.00
2023-05-16T08:13:17.361Z,17.67
2023-05-16T08:16:21.185Z,15.33
2023-05-16T08:19:25.006Z,8.00
2023-05-16T08:22:30.110Z,12.67
2023-05-16T08:25:33.741Z,14.00
2023-05-16T08:28:37.321Z,14.33
2023-05-16T08:31:41.082Z,15.00
2023-05-16T08:34:44.700Z,18.00
2023-05-16T08:37:50.747Z,16.33
2023-05-16T08:40:54.555Z,18.33
2023-05-16T08:43:58.773Z,17.67
2023-05-16T08:47:13.135Z,17.00
2023-05-16T08:50:17.993Z,16.00
2023-05-16T08:53:28.173Z,13.00
2023-05-16T08:56:33.586Z,13.67
2023-05-16T08:59:37.496Z,17.67
2023-05-16T09:02:41.444Z,16.33
2023-05-16T09:05:45.189Z,15.33
2023-05-16T09:08:50.927Z,16.00
2023-05-16T09:11:54.458Z,17.00
2023-05-16T09:14:59.417Z,15.67
2023-05-16T09:18:03.522Z,13.33
2023-05-16T09:21:07.701Z,16.67
2023-05-16T09:24:12.638Z,13.33
2023-05-16T09:27:18.277Z,11.33
2023-05-16T09:30:29.239Z,16.33
2023-05-16T09:33:35.373Z,14.33
2023-05-16T09:36:41.546Z,19.33
2023-05-16T09:39:53.971Z,19.00
2023-05-16T09:43:05.798Z,14.67
2023-05-16T09:46:10.602Z,16.67
2023-05-16T09:49:15.573Z,30.00
2023-05-16T09:52:19.990Z,12.67
2023-05-16T09:55:25.252Z,16.00
2023-05-16T09:58:31.171Z,18.00
2023-05-16T10:01:34.978Z,18.00
2023-05-16T10:04:38.767Z,14.67
2023-05-16T10:07:44.102Z,13.33
2023-05-16T10:10:52.884Z,9.33
2023-05-16T10:13:57.291Z,10.00
2023-05-16T10:17:02.412Z,5.00
2023-05-16T10:20:09.644Z,8.33
2023-05-16T10:23:18.977Z,11.67
2023-05-16T10:26:24.956Z,10.00
2023-05-16T10:29:30.558Z,9.00
2023-05-16T10:32:40.604Z,9.00
2023-05-16T10:35:46.703Z,10.00
2023-05-16T10:38:51.789Z,12.33
2023-05-16T10:41:57.522Z,8.33
2023-05-16T10:45:11.193Z,7.00
2023-05-16T10:48:17.526Z,9.00
2023-05-16T10:51:38.322Z,9.33
2023-05-16T10:54:43.684Z,10.00
2023-05-16T10:57:49.478Z,10.00
2023-05-16T11:01:16.789Z,6.00
2023-05-16T11:04:20.412Z,2.25
2023-05-16T11:07:25.832Z,7.00
2023-05-16T11:10:29.407Z,9.00
2023-05-16T11:13:34.935Z,7.67
2023-05-16T11:16:40.898Z,10.00
2023-05-16T11:19:45.898Z,10.00
2023-05-16T11:22:49.495Z,11.00
2023-05-16T11:25:56.146Z,8.00
2023-05-16T11:29:02.863Z,10.00
2023-05-16T11:32:06.873Z,7.50
2023-05-16T11:35:14.788Z,5.00
2023-05-16T11:38:18.774Z,9.67
2023-05-16T11:41:23.829Z,9.67
2023-05-16T11:44:29.019Z,6.67
2023-05-16T11:47:32.832Z,6.67
2023-05-16T11:50:36.814Z,7.67
2023-05-16T11:53:40.357Z,8.00
2023-05-16T11:56:44.062Z,6.50
2023-05-16T11:59:49.625Z,6.75
2023-05-16T12:02:53.777Z,6.00
2023-05-16T12:05:58.347Z,7.00
2023-05-16T12:09:04.188Z,6.75
2023-05-16T12:12:09.675Z,5.67
2023-05-16T12:15:15.252Z,25.33
2023-05-16T12:18:19.188Z,6.00
2023-05-16T12:21:23.191Z,8.00
2023-05-16T12:24:32.210Z,5.00
2023-05-16T12:27:35.925Z,6.33
2023-05-16T12:30:43.323Z,6.25
2023-05-16T12:33:47.405Z,8.33
2023-05-16T12:36:54.137Z,6.67
2023-05-16T12:40:01.764Z,7.00
2023-05-16T12:43:05.524Z,10.25
2023-05-16T12:46:13.191Z,7.00
2023-05-16T12:49:16.861Z,6.00
2023-05-16T12:52:21.878Z,8.50
2023-05-16T12:55:25.562Z,7.75
2023-05-16T12:58:31.918Z,7.00
2023-05-16T13:01:37.584Z,11.00
2023-05-16T13:04:41.653Z,6.25
2023-05-16T13:07:45.295Z,10.25
2023-05-16T13:10:48.922Z,6.75
2023-05-16T13:13:52.474Z,6.67
2023-05-16T13:16:57.545Z,10.00
2023-05-16T13:20:02.095Z,10.00
2023-05-16T13:23:06.613Z,7.00
2023-05-16T13:26:10.484Z,7.25
2023-05-16T13:29:14.962Z,5.00
2023-05-16T13:32:20.001Z,7.00
2023-05-16T13:35:24.872Z,9.00
2023-05-16T13:38:28.456Z,11.00
2023-05-16T13:41:32.424Z,7.00
2023-05-16T13:44:35.908Z,7.33
2023-05-16T13:47:41.005Z,5.50
2023-05-16T13:50:44.883Z,7.00
2023-05-16T13:53:48.697Z,10.00
2023-05-16T13:56:52.700Z,7.00
2023-05-16T14:00:24.883Z,10.00
2023-05-16T14:03:23.086Z,8.33
2023-05-16T14:06:26.608Z,9.00
2023-05-16T14:09:31.724Z,10.00
2023-05-16T14:12:35.612Z,11.00
2023-05-16T14:15:39.138Z,6.00
2023-05-16T14:18:43.967Z,16.33
2023-05-16T14:21:47.748Z,14.67
2023-05-16T14:24:51.280Z,13.00
2023-05-16T14:27:55.149Z,11.67
2023-05-16T14:30:58.600Z,10.33
2023-05-16T14:34:07.304Z,14.00
2023-05-16T14:37:11.635Z,11.33
2023-05-16T14:40:15.061Z,10.00
2023-05-16T14:43:18.701Z,13.00
2023-05-16T14:46:22.271Z,10.67
2023-05-16T14:49:27.225Z,15.00
2023-05-16T14:52:30.870Z,12.33
2023-05-16T14:55:34.326Z,11.00
2023-05-16T14:58:37.889Z,8.67
2023-05-16T15:01:41.580Z,10.33
2023-05-16T15:04:47.640Z,10.00
2023-05-16T15:07:51.738Z,10.67
2023-05-16T15:10:55.306Z,9.00
2023-05-16T15:13:58.761Z,10.67
2023-05-16T15:17:02.223Z,10.67
2023-05-16T15:20:09.701Z,14.67
2023-05-16T15:23:13.362Z,9.67
2023-05-16T15:26:18.048Z,15.67
2023-05-16T15:29:21.446Z,19.33
2023-05-16T15:32:25.172Z,20.00
2023-05-16T15:35:30.317Z,17.00
2023-05-16T15:38:34.459Z,19.33
2023-05-16T15:44:47.350Z,44.33
2023-05-16T15:47:51.094Z,22.33
2023-05-16T15:50:56.544Z,57.25
2023-05-16T15:54:00.081Z,30.00
2023-05-16T15:57:03.716Z,18.67
2023-05-16T16:00:09.065Z,18.67
2023-05-16T16:03:15.527Z,14.33
2023-05-16T16:06:21.000Z,22.33
2023-05-16T16:09:24.515Z,20.33
2023-05-16T16:12:31.245Z,15.67
2023-05-16T16:15:36.172Z,17.33
2023-05-16T16:18:39.885Z,18.00
2023-05-16T16:21:44.812Z,17.67
2023-05-16T16:24:48.214Z,22.67
2023-05-16T16:27:52.011Z,19.67
2023-05-16T16:30:56.256Z,27.33
2023-05-16T16:33:59.695Z,21.33
2023-05-16T16:37:04.735Z,24.33
2023-05-16T16:40:11.097Z,37.67
2023-05-16T16:43:15.512Z,26.00
2023-05-16T16:46:19.038Z,30.00
2023-05-16T16:49:31.905Z,31.00
2023-05-16T16:52:37.123Z,25.00
2023-05-16T16:55:41.056Z,23.67
2023-05-16T16:58:44.689Z,20.67
2023-05-16T17:01:49.203Z,20.33
2023-05-16T17:04:52.993Z,28.33
2023-05-16T17:07:57.790Z,29.00
2023-05-16T17:11:05.173Z,39.50
2023-05-16T17:14:10.820Z,42.25
2023-05-16T17:17:14.590Z,43.50
2023-05-16T17:20:18.140Z,40.50
2023-05-16T17:23:23.318Z,53.75
2023-05-16T17:26:27.527Z,50.00
2023-05-16T17:29:31.571Z,47.50
2023-05-16T17:32:35.273Z,55.75
2023-05-16T17:35:38.873Z,51.00
2023-05-16T17:38:43.966Z,37.00
2023-05-16T17:41:47.585Z,50.25
2023-05-16T17:44:51.178Z,47.00
2023-05-16T17:47:54.958Z,46.75
2023-05-16T17:50:58.784Z,32.00
2023-05-16T17:54:04.792Z,51.50
2023-05-16T17:57:09.136Z,38.50
2023-05-16T18:00:15.124Z,35.25
2023-05-16T18:03:18.885Z,31.25
2023-05-16T18:06:23.101Z,22.50
2023-05-16T18:09:29.039Z,36.75
2023-05-16T18:12:34.279Z,57.25
2023-05-16T18:15:38.195Z,46.25
2023-05-16T18:18:41.887Z,49.75
2023-05-16T18:21:45.737Z,54.50
2023-05-16T18:24:51.015Z,46.50
2023-05-16T18:27:54.599Z,42.75
2023-05-16T18:30:58.301Z,49.25
2023-05-16T18:34:02.943Z,49.00
2023-05-16T18:37:07.453Z,42.50
2023-05-16T18:40:13.804Z,48.00
2023-05-16T18:43:17.722Z,44.75
2023-05-16T18:46:21.244Z,49.00
2023-05-16T18:49:24.802Z,51.50
2023-05-16T18:52:28.694Z,53.75
2023-05-16T18:55:33.878Z,57.00
2023-05-16T18:58:37.767Z,52.00
2023-05-16T19:01:41.317Z,49.00
2023-05-16T19:04:45.170Z,65.25
2023-05-16T19:07:49.270Z,55.00
2023-05-16T19:10:57.084Z,56.50
2023-05-16T19:14:00.618Z,49.50
2023-05-16T19:17:04.742Z,45.75
2023-05-16T19:20:11.050Z,57.00
2023-05-16T19:23:14.584Z,59.00
2023-05-16T19:26:19.475Z,36.50
2023-05-16T19:29:31.474Z,55.25
2023-05-16T19:32:35.006Z,53.75
2023-05-16T19:35:39.765Z,44.50
2023-05-16T19:38:43.362Z,50.25
2023-05-16T19:41:52.283Z,56.75
2023-05-16T19:44:55.971Z,48.75
2023-05-16T19:48:00.010Z,48.00
2023-05-16T19:51:03.581Z,46.00
2023-05-16T19:54:07.253Z,53.50
2023-05-16T19:57:12.325Z,53.00
2023-05-16T20:00:16.748Z,56.50
2023-05-16T20:03:20.405Z,55.00
2023-05-16T20:06:24.141Z,53.50
2023-05-16T20:09:28.620Z,52.25
2023-05-16T20:12:33.641Z,48.25
2023-05-16T20:15:37.149Z,61.75
2023-05-16T20:18:40.687Z,59.50
2023-05-16T20:21:44.676Z,38.50
2023-05-16T20:24:48.367Z,45.00
2023-05-16T20:27:53.478Z,59.50
2023-05-16T20:30:57.045Z,58.25
2023-05-16T20:34:00.878Z,53.00
2023-05-16T20:37:05.097Z,54.50
2023-05-16T20:40:10.060Z,58.00
2023-05-16T20:43:14.946Z,57.25
2023-05-16T20:46:18.532Z,52.00
2023-05-16T20:49:22.032Z,50.00
2023-05-16T20:52:25.653Z,55.50
2023-05-16T20:55:29.344Z,55.50
2023-05-16T20:58:34.561Z,52.00
2023-05-16T21:01:38.154Z,43.50
2023-05-16T21:04:41.675Z,53.50
2023-05-16T21:07:45.329Z,50.25
2023-05-16T21:10:48.745Z,45.00
2023-05-16T21:13:53.995Z,55.00
2023-05-16T21:16:57.680Z,46.75
2023-05-16T21:20:01.291Z,31.50
2023-05-16T21:23:05.003Z,57.75
2023-05-16T21:26:08.677Z,53.75
2023-05-16T21:29:13.915Z,47.25
2023-05-16T21:32:17.469Z,50.25
2023-05-16T21:35:21.227Z,50.25
2023-05-16T21:38:24.770Z,60.25
2023-05-16T21:41:28.506Z,50.00
2023-05-16T21:44:33.693Z,52.00
2023-05-16T21:47:37.674Z,48.75
2023-05-16T21:50:41.453Z,33.25
2023-05-16T21:53:46.648Z,53.00
2023-05-16T21:56:50.282Z,44.50
2023-05-16T21:59:55.449Z,36.00
2023-05-16T22:02:59.101Z,53.00
2023-05-16T22:06:02.731Z,27.50
2023-05-16T22:09:06.333Z,28.50
2023-05-16T22:12:10.254Z,49.00
2023-05-16T22:15:15.170Z,49.25
2023-05-16T22:18:18.756Z,47.75
2023-05-16T22:21:22.559Z,33.75
2023-05-16T22:24:29.730Z,34.00
2023-05-16T22:27:33.209Z,16.25
2023-05-16T22:30:38.232Z,21.00
2023-05-16T22:33:41.776Z,45.50
2023-05-16T22:36:45.624Z,46.25
2023-05-16T22:39:49.231Z,24.00
2023-05-16T22:42:52.624Z,22.00
2023-05-16T22:45:57.482Z,12.50
2023-05-16T22:49:01.130Z,29.25
2023-05-16T22:52:04.809Z,20.00
2023-05-16T22:55:08.867Z,22.50
2023-05-16T22:58:12.624Z,10.00
2023-05-16T23:01:17.669Z,18.50
2023-05-16T23:04:21.133Z,19.00
2023-05-16T23:07:24.696Z,15.00
2023-05-16T23:10:28.228Z,27.00
2023-05-16T23:13:31.810Z,27.50
2023-05-16T23:16:39.026Z,25.25
2023-05-16T23:19:42.649Z,5.75
2023-05-16T23:22:46.098Z,17.75
2023-05-16T23:25:49.888Z,18.00
2023-05-16T23:28:53.345Z,20.75
2023-05-16T23:31:58.483Z,22.50
2023-05-16T23:35:02.435Z,14.00
2023-05-16T23:38:07.105Z,23.00
2023-05-16T23:41:10.689Z,17.75
2023-05-16T23:44:14.110Z,15.75
2023-05-16T23:47:19.173Z,11.50
2023-05-16T23:50:23.647Z,21.50
2023-05-16T23:53:29.457Z,5.25
2023-05-16T23:56:33.377Z,23.50
2023-05-16T23:59:36.889Z,20.00
